Terminal Aerodrome Forecast
Issued by NWS

Home | Current Version | Previous Version | Text Only | Print | Product List | Glossary On
Versions: 1 2 3 4 5 6 7 8 9 10 11 12 13 14 15 16 17 18 19
000
FTUS43 KIND 050232 AAA
TAFLAF
TAF AMD
KLAF 050232Z 0503/0524 26011G18KT P6SM OVC004
     FM050500 27008KT P6SM OVC008
     FM050900 27006KT 5SM BR OVC003
     FM051600 19005KT P6SM BKN008
     FM051900 17005KT P6SM BKN040
      AMD LTD TO CLD VIS AND WIND TIL 051400=

USA.gov is the U.S. government's official web portal to all federal, state and local government web resources and services.